Time;durP1;ratioP1;P1;durP2;ratioP2;P2;SDS_P1;SDS_P2;PMS_P1;PMS_P2;Temp;Humidity;BMP_temperature;BMP_pressure;BME280_temperature;BME280_humidity;BME280_pressure;Samples;Min_cycle;Max_cycle;Signal;HPM_P1;HPM_P2
2022/04/24 00:01:07;;;;;;;14.95;13.45;;;;;;;11.44;58.97;97045.78;2623152;54;20037;-66
2022/04/24 00:03:36;;;;;;;13.68;12.13;;;;;;;11.43;59.18;97049.44;2622672;54;20030;-64
2022/04/24 00:06:06;;;;;;;14.50;13.00;;;;;;;11.44;59.21;97049.22;2622796;54;20085;-64
2022/04/24 00:08:39;;;;;;;14.80;13.32;;;;;;;11.43;58.89;97041.50;2622186;54;20118;-65
2022/04/24 00:11:09;;;;;;;15.40;13.85;;;;;;;11.35;59.08;97037.44;2622828;54;20122;-64
2022/04/24 00:13:41;;;;;;;15.52;13.35;;;;;;;11.29;59.20;97031.25;2622447;54;20027;-64
2022/04/24 00:16:12;;;;;;;15.55;11.85;;;;;;;11.24;59.55;97033.00;2622564;54;20030;-64
2022/04/24 00:18:42;;;;;;;14.52;12.73;;;;;;;11.24;59.67;97033.81;2622722;54;20158;-63
2022/04/24 00:21:11;;;;;;;16.85;12.18;;;;;;;11.26;59.92;97028.28;2622574;54;20033;-64
2022/04/24 00:23:43;;;;;;;14.50;12.88;;;;;;;11.29;59.75;97031.25;2622879;54;20030;-64
2022/04/24 00:26:13;;;;;;;14.10;12.57;;;;;;;11.26;59.82;97026.44;2624432;39;20404;-65
2022/04/24 00:28:42;;;;;;;15.07;12.65;;;;;;;11.25;59.96;97024.84;2622772;54;20027;-64
2022/04/24 00:31:12;;;;;;;18.30;12.48;;;;;;;11.23;59.48;97026.94;2622833;54;20045;-64
2022/04/24 00:33:42;;;;;;;14.48;11.88;;;;;;;11.25;59.84;97031.97;2622949;54;20034;-63
2022/04/24 00:36:12;;;;;;;18.42;12.45;;;;;;;11.21;59.82;97028.19;2622827;54;20030;-64
2022/04/24 00:38:44;;;;;;;18.70;12.23;;;;;;;11.15;59.81;97024.69;2623113;54;20026;-63
2022/04/24 00:41:13;;;;;;;15.35;11.82;;;;;;;11.17;59.77;97027.88;2623093;39;20454;-65
2022/04/24 00:43:43;;;;;;;12.95;11.55;;;;;;;11.22;60.00;97022.66;2622486;54;20034;-64
2022/04/24 00:46:49;;;;;;;14.13;12.63;;;;;;;11.19;59.91;97023.16;2622750;54;20065;-64
2022/04/24 00:49:19;;;;;;;12.55;11.18;;;;;;;11.26;59.99;97020.34;2622467;54;20557;-64
2022/04/24 00:51:49;;;;;;;15.63;12.02;;;;;;;11.30;60.06;97024.09;2623457;39;20442;-63
2022/04/24 00:54:22;;;;;;;13.05;11.43;;;;;;;11.30;59.46;97027.56;2622526;47;20042;-64
2022/04/24 00:56:51;;;;;;;12.40;11.07;;;;;;;11.33;59.82;97024.44;2622785;54;20038;-63
2022/04/24 00:59:21;;;;;;;14.15;11.73;;;;;;;11.39;59.50;97018.19;2623543;39;20415;-64
2022/04/24 01:01:51;;;;;;;14.32;12.18;;;;;;;11.48;59.46;97023.09;2622525;54;20038;-63
2022/04/24 01:04:21;;;;;;;14.85;11.75;;;;;;;11.50;59.50;97018.34;2622436;47;20035;-63
2022/04/24 01:06:51;;;;;;;14.18;11.80;;;;;;;11.50;59.34;97029.72;2622848;54;20034;-62
2022/04/24 01:09:26;;;;;;;13.75;12.25;;;;;;;11.50;59.37;97028.91;2622479;47;20029;-63
2022/04/24 01:11:56;;;;;;;14.30;12.38;;;;;;;11.44;59.26;97025.41;2623123;54;20035;-65
2022/04/24 01:14:28;;;;;;;13.80;12.30;;;;;;;11.37;59.26;97025.56;2622447;54;20027;-62
2022/04/24 01:16:58;;;;;;;13.10;11.75;;;;;;;11.29;59.80;97018.03;2621706;39;20446;-63
2022/04/24 01:19:28;;;;;;;12.85;11.55;;;;;;;11.28;59.58;97016.41;2622620;54;20034;-63
2022/04/24 01:22:01;;;;;;;16.52;12.38;;;;;;;11.23;59.89;97019.00;2623407;54;20617;-64
2022/04/24 01:24:32;;;;;;;14.63;13.07;;;;;;;11.26;59.99;97010.56;2624212;54;20033;-64
2022/04/24 01:27:02;;;;;;;13.27;11.27;;;;;;;11.25;60.31;97022.19;2623686;54;20045;-64
2022/04/24 01:29:32;;;;;;;13.88;12.38;;;;;;;11.30;60.24;97011.69;2624092;54;20029;-63
2022/04/24 01:32:01;;;;;;;13.27;11.57;;;;;;;11.27;59.81;97006.88;2622652;54;20046;-65
2022/04/24 01:34:31;;;;;;;13.85;12.45;;;;;;;11.21;59.77;97007.84;2621870;54;20026;-63
2022/04/24 01:37:03;;;;;;;12.10;10.75;;;;;;;11.22;60.26;97011.28;2621711;47;20034;-64
2022/04/24 01:39:33;;;;;;;12.60;10.80;;;;;;;11.23;60.20;97002.31;2623116;54;20030;-65
2022/04/24 01:42:03;;;;;;;14.65;11.38;;;;;;;11.24;60.24;97001.28;2623574;54;20046;-64
2022/04/24 01:44:32;;;;;;;13.10;11.80;;;;;;;11.26;60.38;96999.97;2622778;54;20037;-64
2022/04/24 01:47:02;;;;;;;12.02;10.70;;;;;;;11.33;59.73;96997.97;2622140;54;20043;-65
2022/04/24 01:49:31;;;;;;;13.10;11.75;;;;;;;11.35;59.97;96995.09;2621720;54;20029;-65
2022/04/24 01:52:03;;;;;;;14.88;12.75;;;;;;;11.36;59.73;96991.41;2622309;54;20026;-65
2022/04/24 01:54:33;;;;;;;12.63;11.30;;;;;;;11.35;59.71;96990.63;2622061;54;20038;-64
2022/04/24 01:57:03;;;;;;;12.77;11.27;;;;;;;11.36;59.58;96994.06;2621550;54;20034;-67
2022/04/24 01:59:32;;;;;;;13.05;11.25;;;;;;;11.37;59.88;96993.81;2621751;54;20039;-63
2022/04/24 02:02:02;;;;;;;12.65;11.35;;;;;;;11.42;59.31;97001.00;2621526;47;20029;-63
2022/04/24 02:04:32;;;;;;;11.90;10.63;;;;;;;11.46;59.58;96993.41;2622027;54;20561;-63
2022/04/24 02:07:04;;;;;;;11.77;10.57;;;;;;;11.47;59.21;97002.94;2621903;54;20038;-62
2022/04/24 02:09:35;;;;;;;11.93;10.70;;;;;;;11.52;59.54;97011.78;2622121;54;20033;-62
2022/04/24 02:12:05;;;;;;;12.63;11.25;;;;;;;11.52;59.16;97006.47;2622370;54;20085;-62
2022/04/24 02:14:35;;;;;;;12.57;10.90;;;;;;;11.51;59.37;97014.63;2622674;54;20038;-64
2022/04/24 02:17:06;;;;;;;12.15;10.85;;;;;;;11.51;59.36;97014.63;2622752;39;20423;-64
2022/04/24 02:19:35;;;;;;;11.82;10.30;;;;;;;11.52;58.97;97019.72;2622777;54;20038;-63
2022/04/24 02:22:08;;;;;;;13.95;10.90;;;;;;;11.54;59.16;97022.91;2622191;54;20038;-63
2022/04/24 02:24:37;;;;;;;12.02;10.68;;;;;;;11.59;59.05;97030.09;2622729;54;20565;-65
2022/04/24 02:27:09;;;;;;;15.27;11.65;;;;;;;11.63;58.56;97041.81;2621975;54;20038;-62
2022/04/24 02:29:38;;;;;;;13.38;11.52;;;;;;;11.62;58.80;97045.50;2622008;54;20053;-62
2022/04/24 02:32:10;;;;;;;11.43;10.20;;;;;;;11.60;58.67;97042.31;2620903;39;20426;-63
2022/04/24 02:34:39;;;;;;;12.25;10.95;;;;;;;11.59;58.94;97054.75;2620342;54;20045;-64
2022/04/24 02:37:16;;;;;;;13.48;10.70;;;;;;;11.58;59.05;97058.41;2619399;39;20154;-63
2022/04/24 02:39:45;;;;;;;12.75;10.88;;;;;;;11.62;58.85;97066.69;2619565;54;20040;-64
2022/04/24 02:42:15;;;;;;;11.30;10.18;;;;;;;11.62;58.87;97064.84;2620292;54;20030;-63
2022/04/24 02:44:45;;;;;;;12.98;11.13;;;;;;;11.62;58.61;97069.34;2620813;54;20034;-63
2022/04/24 02:47:15;;;;;;;14.02;11.57;;;;;;;11.65;58.97;97074.16;2620918;54;20030;-63
2022/04/24 02:49:45;;;;;;;11.10;10.00;;;;;;;11.60;58.91;97076.72;2622715;54;20558;-64
2022/04/24 02:52:17;;;;;;;12.25;10.95;;;;;;;11.63;58.78;97070.94;2623564;54;20046;-62
2022/04/24 02:54:46;;;;;;;11.70;10.50;;;;;;;11.64;58.89;97078.66;2623304;54;20045;-62
2022/04/24 02:57:16;;;;;;;12.18;10.88;;;;;;;11.72;59.25;97069.50;2620661;39;20426;-63
2022/04/24 02:59:48;;;;;;;14.10;11.18;;;;;;;11.76;58.76;97078.56;2619786;54;20030;-62
2022/04/24 03:02:18;;;;;;;12.52;10.43;;;;;;;11.78;58.90;97073.81;2619968;39;20427;-62
2022/04/24 03:04:48;;;;;;;12.35;11.05;;;;;;;11.83;59.16;97067.81;2622505;54;20030;-65
2022/04/24 03:07:21;;;;;;;12.85;10.88;;;;;;;11.84;58.79;97077.38;2622682;39;20486;-65
2022/04/24 03:09:50;;;;;;;14.63;10.63;;;;;;;11.82;58.97;97080.22;2622249;39;20431;-63
2022/04/24 03:12:20;;;;;;;12.55;11.02;;;;;;;11.86;58.99;97083.22;2622687;54;20027;-62
2022/04/24 03:14:50;;;;;;;12.75;11.13;;;;;;;11.86;58.74;97075.28;2622976;54;20038;-63
2022/04/24 03:17:19;;;;;;;12.98;11.52;;;;;;;11.85;58.92;97081.63;2622734;54;20539;-63
2022/04/24 03:19:49;;;;;;;13.93;10.50;;;;;;;11.85;59.24;97085.06;2622258;47;20027;-63
2022/04/24 03:22:21;;;;;;;12.25;10.95;;;;;;;11.86;59.42;97078.72;2622974;39;20440;-65
2022/04/24 03:24:51;;;;;;;16.65;11.45;;;;;;;11.85;59.02;97081.63;2622124;54;20042;-63
2022/04/24 03:27:20;;;;;;;14.38;11.90;;;;;;;11.82;59.83;97080.22;2622382;54;20031;-63
2022/04/24 03:29:50;;;;;;;14.80;11.40;;;;;;;11.80;59.78;97077.03;2622578;39;20430;-63
2022/04/24 03:32:19;;;;;;;12.15;10.77;;;;;;;11.84;60.20;97082.69;2622951;54;20030;-63
2022/04/24 03:34:52;;;;;;;12.52;10.77;;;;;;;11.84;60.31;97086.13;2622026;54;20581;-64
2022/04/24 03:37:25;;;;;;;12.05;10.25;;;;;;;11.84;60.39;97094.06;2623457;54;20034;-63
2022/04/24 03:39:54;;;;;;;13.32;11.93;;;;;;;11.85;60.95;97089.56;2624550;54;20030;-64
2022/04/24 03:42:25;;;;;;;12.35;11.07;;;;;;;11.83;61.47;97089.00;2624133;54;20035;-64
2022/04/24 03:44:55;;;;;;;12.75;11.40;;;;;;;11.83;61.59;97091.66;2624447;54;20027;-63
2022/04/24 03:47:25;;;;;;;13.77;11.05;;;;;;;11.85;61.84;97094.88;2623048;54;20023;-62
2022/04/24 03:49:55;;;;;;;13.10;10.75;;;;;;;11.85;61.63;97095.66;2624842;54;20081;-64
2022/04/24 03:52:27;;;;;;;12.20;10.93;;;;;;;11.78;62.15;97104.78;2622810;54;20038;-61
2022/04/24 03:54:57;;;;;;;13.02;11.73;;;;;;;11.75;62.27;97106.06;2623366;54;20037;-62
2022/04/24 03:57:27;;;;;;;13.05;10.30;;;;;;;11.63;62.37;97103.50;2622289;54;20614;-63
2022/04/24 03:59:57;;;;;;;10.52;9.48;;;;;;;11.32;62.81;97106.69;2622714;54;20035;-63
2022/04/24 04:02:26;;;;;;;9.88;8.90;;;;;;;11.41;63.18;97110.53;2623393;54;20038;-64
2022/04/24 04:04:56;;;;;;;9.95;8.95;;;;;;;11.38;63.04;97106.53;2623052;54;20042;-62
2022/04/24 04:07:28;;;;;;;10.70;9.52;;;;;;;11.22;63.31;97106.50;2623104;54;20570;-64
2022/04/24 04:09:58;;;;;;;10.65;9.35;;;;;;;11.20;63.06;97109.38;2623647;54;20042;-64
2022/04/24 04:12:28;;;;;;;11.10;9.75;;;;;;;11.22;63.57;97115.22;2623518;54;20534;-63
2022/04/24 04:14:58;;;;;;;10.60;9.48;;;;;;;11.20;63.08;97108.59;2623209;54;20042;-63
2022/04/24 04:17:28;;;;;;;9.73;8.70;;;;;;;11.18;62.84;97119.38;2622714;54;20030;-64
2022/04/24 04:19:59;;;;;;;10.70;9.60;;;;;;;11.20;63.07;97104.09;2622036;54;20080;-64
2022/04/24 04:22:31;;;;;;;9.57;8.15;;;;;;;11.21;63.03;97108.34;2621864;54;20034;-64
2022/04/24 04:25:00;;;;;;;9.68;8.63;;;;;;;11.24;63.43;97113.16;2622185;39;20478;-63
2022/04/24 04:27:30;;;;;;;9.77;8.77;;;;;;;11.31;62.98;97116.47;2620893;54;20030;-64
2022/04/24 04:30:00;;;;;;;8.75;7.85;;;;;;;11.39;62.90;97121.38;2619470;46;20042;-64
2022/04/24 04:32:29;;;;;;;9.35;8.45;;;;;;;11.49;62.53;97122.59;2619502;54;20034;-64
2022/04/24 04:34:59;;;;;;;8.82;7.93;;;;;;;11.58;62.25;97121.13;2619406;54;20039;-64
2022/04/24 04:37:31;;;;;;;9.25;7.75;;;;;;;11.70;62.16;97121.88;2618629;54;20030;-63
2022/04/24 04:40:02;;;;;;;9.10;8.15;;;;;;;11.76;61.81;97122.78;2619347;54;20046;-63
2022/04/24 04:42:32;;;;;;;9.25;8.18;;;;;;;11.79;61.50;97119.63;2619071;54;20033;-63
2022/04/24 04:45:03;;;;;;;7.80;7.10;;;;;;;11.82;60.86;97117.28;2619517;39;20434;-63
2022/04/24 04:47:33;;;;;;;9.57;7.68;;;;;;;11.82;60.06;97122.59;2618705;54;20038;-64
2022/04/24 04:50:04;;;;;;;13.55;11.95;;;;;;;11.82;60.22;97125.22;2618841;54;20085;-62
2022/04/24 04:52:38;;;;;;;9.10;8.05;;;;;;;11.77;59.71;97137.59;2618731;54;20100;-64
2022/04/24 04:55:08;;;;;;;12.98;10.43;;;;;;;11.82;60.97;97133.19;2618922;54;20035;-62
2022/04/24 04:57:38;;;;;;;17.63;14.75;;;;;;;11.84;61.07;97135.63;2620019;54;20045;-62
2022/04/24 05:00:11;;;;;;;13.15;11.60;;;;;;;11.80;60.87;97142.41;2620413;54;20046;-63
2022/04/24 05:02:41;;;;;;;12.43;10.98;;;;;;;11.69;61.37;97138.00;2620554;47;20037;-63
2022/04/24 05:05:11;;;;;;;9.15;7.78;;;;;;;11.68;60.63;97133.75;2622104;54;20026;-65
2022/04/24 05:07:43;;;;;;;10.48;9.48;;;;;;;11.69;60.98;97130.06;2621800;54;20034;-65
2022/04/24 05:10:13;;;;;;;13.98;11.75;;;;;;;11.69;61.25;97136.16;2623313;39;20419;-65
2022/04/24 05:12:43;;;;;;;12.00;10.27;;;;;;;11.71;61.71;97136.69;2622552;54;20057;-65
2022/04/24 05:15:15;;;;;;;12.43;11.13;;;;;;;11.71;62.08;97139.34;2622659;54;20034;-67
2022/04/24 05:17:46;;;;;;;14.07;11.40;;;;;;;11.69;62.56;97135.34;2622710;54;20039;-64
2022/04/24 05:20:16;;;;;;;13.18;11.63;;;;;;;11.64;62.77;97138.72;2622566;39;20434;-65
2022/04/24 05:22:48;;;;;;;13.15;11.75;;;;;;;11.63;62.65;97137.09;2622726;54;20031;-67
2022/04/24 05:25:18;;;;;;;12.88;11.57;;;;;;;11.59;62.92;97147.38;2623217;54;20026;-65
2022/04/24 05:27:47;;;;;;;15.20;10.68;;;;;;;11.56;62.90;97144.41;2622396;54;20030;-63
2022/04/24 05:30:17;;;;;;;11.93;10.68;;;;;;;11.62;63.29;97146.88;2623324;39;20461;-63
2022/04/24 05:32:50;;;;;;;11.80;10.52;;;;;;;11.72;63.65;97142.81;2622101;54;20107;-63
2022/04/24 05:35:19;;;;;;;11.45;10.30;;;;;;;11.74;63.26;97141.53;2622879;54;20038;-63
2022/04/24 05:37:52;;;;;;;11.98;10.55;;;;;;;11.75;62.96;97148.41;2622659;54;20034;-63
2022/04/24 05:40:21;;;;;;;15.75;13.68;;;;;;;11.76;62.73;97151.88;2622835;54;20030;-62
2022/04/24 05:42:53;;;;;;;8.60;7.70;;;;;;;11.34;61.74;97162.78;2622642;54;20039;-63
2022/04/24 05:45:24;;;;;;;7.50;6.65;;;;;;;11.26;60.01;97161.31;2622179;47;20085;-65
2022/04/24 05:47:56;;;;;;;8.18;7.38;;;;;;;11.26;60.32;97165.81;2622374;54;20042;-63
2022/04/24 05:50:27;;;;;;;7.45;6.75;;;;;;;11.19;60.30;97160.69;2622057;54;20037;-64
2022/04/24 05:53:00;;;;;;;9.48;8.48;;;;;;;11.31;60.07;97171.22;2621992;54;20027;-64
2022/04/24 05:55:30;;;;;;;7.43;6.72;;;;;;;11.41;60.40;97168.75;2622777;54;20034;-64
2022/04/24 05:57:59;;;;;;;9.65;7.47;;;;;;;11.53;60.20;97164.19;2621736;54;20134;-63
2022/04/24 06:00:29;;;;;;;9.38;7.50;;;;;;;11.62;59.88;97170.69;2622888;39;20197;-65
2022/04/24 06:02:59;;;;;;;11.38;7.72;;;;;;;11.70;60.37;97172.16;2623016;54;20034;-66
2022/04/24 06:05:29;;;;;;;8.48;7.60;;;;;;;11.76;60.22;97171.22;2622965;54;20033;-65
2022/04/24 06:08:01;;;;;;;10.45;8.77;;;;;;;11.78;60.43;97166.47;2622754;54;20585;-65
2022/04/24 06:10:31;;;;;;;13.07;11.18;;;;;;;11.79;60.81;97172.56;2622841;54;20026;-65
2022/04/24 06:13:00;;;;;;;11.25;9.30;;;;;;;11.75;61.23;97172.25;2622679;54;20041;-65
2022/04/24 06:15:31;;;;;;;10.77;9.65;;;;;;;11.70;61.77;97181.94;2622752;54;20031;-64
2022/04/24 06:18:02;;;;;;;12.57;10.93;;;;;;;11.66;62.22;97176.31;2622901;54;20035;-65
2022/04/24 06:20:31;;;;;;;9.57;8.68;;;;;;;11.63;62.19;97176.78;2623068;47;20034;-65
2022/04/24 06:23:04;;;;;;;10.48;8.45;;;;;;;11.61;62.95;97176.25;2622421;54;20027;-64
2022/04/24 06:25:35;;;;;;;10.05;8.98;;;;;;;11.64;62.85;97183.72;2622496;46;20023;-65
2022/04/24 06:28:06;;;;;;;11.52;10.32;;;;;;;11.69;62.83;97183.78;2623144;54;20142;-64
2022/04/24 06:30:40;;;;;;;11.70;10.50;;;;;;;11.63;62.87;97184.72;2623212;54;20026;-64
2022/04/24 06:33:09;;;;;;;14.45;9.98;;;;;;;11.59;63.61;97188.91;2623755;54;20042;-65
2022/04/24 06:35:40;;;;;;;11.57;10.40;;;;;;;11.57;63.54;97189.16;2622949;54;20031;-64
2022/04/24 06:38:12;;;;;;;11.23;10.00;;;;;;;11.55;64.09;97188.59;2622859;54;20030;-65
2022/04/24 06:40:42;;;;;;;11.13;10.02;;;;;;;11.57;64.26;97183.06;2623823;54;20026;-65
2022/04/24 06:43:11;;;;;;;10.05;9.00;;;;;;;11.61;63.94;97184.97;2622969;54;20030;-63
2022/04/24 06:45:43;;;;;;;10.82;9.40;;;;;;;11.68;63.52;97189.34;2623356;54;20038;-63
2022/04/24 06:48:14;;;;;;;11.32;8.55;;;;;;;11.72;63.23;97193.91;2622750;54;20031;-63
2022/04/24 06:50:44;;;;;;;10.82;9.73;;;;;;;11.69;63.31;97196.22;2623046;54;20038;-62
2022/04/24 06:53:18;;;;;;;8.95;8.02;;;;;;;11.51;63.42;97203.34;2621463;39;20112;-63
2022/04/24 06:55:50;;;;;;;9.65;8.32;;;;;;;11.51;63.62;97202.50;2620237;54;20033;-65
2022/04/24 06:58:24;;;;;;;8.27;7.47;;;;;;;11.52;62.84;97201.50;2621034;54;20037;-63
2022/04/24 07:00:54;;;;;;;8.55;7.65;;;;;;;11.54;63.36;97210.00;2619110;54;20038;-64
2022/04/24 07:03:39;;;;;;;10.50;9.32;;;;;;;11.55;62.81;97209.78;2619416;54;20637;-66
2022/04/24 07:06:09;;;;;;;10.30;9.13;;;;;;;11.49;62.70;97216.00;2620808;54;20030;-61
2022/04/24 07:08:41;;;;;;;10.57;9.48;;;;;;;11.43;62.99;97216.13;2621734;54;20038;-62
2022/04/24 07:11:10;;;;;;;8.90;8.00;;;;;;;11.33;62.48;97220.19;2622350;54;20027;-62
2022/04/24 07:13:41;;;;;;;10.25;9.20;;;;;;;11.24;62.81;97221.63;2620959;54;20692;-63
2022/04/24 07:16:10;;;;;;;10.02;8.75;;;;;;;11.09;62.87;97223.94;2623167;54;20130;-63
2022/04/24 07:18:40;;;;;;;9.98;7.90;;;;;;;10.99;63.95;97229.06;2621187;54;20138;-64
2022/04/24 07:21:10;;;;;;;8.70;7.80;;;;;;;11.04;63.85;97229.16;2622656;54;20042;-65
2022/04/24 07:23:42;;;;;;;9.30;8.07;;;;;;;11.07;63.78;97229.47;2621335;54;20030;-65
2022/04/24 07:26:11;;;;;;;8.82;7.93;;;;;;;11.14;63.80;97221.41;2623062;39;20406;-65
2022/04/24 07:28:41;;;;;;;9.93;8.93;;;;;;;11.27;63.73;97231.72;2623697;39;20454;-65
2022/04/24 07:31:13;;;;;;;9.77;8.73;;;;;;;11.23;63.84;97229.78;2622733;54;20038;-65
2022/04/24 07:33:43;;;;;;;9.23;8.32;;;;;;;11.31;65.01;97229.44;2622926;54;20023;-66
2022/04/24 07:36:13;;;;;;;10.93;8.98;;;;;;;11.43;65.07;97224.91;2623556;54;20030;-63
2022/04/24 07:38:45;;;;;;;11.52;10.38;;;;;;;11.42;64.22;97233.84;2622771;47;20046;-65
2022/04/24 07:41:15;;;;;;;10.20;8.52;;;;;;;11.24;64.77;97226.91;2622373;54;20125;-64
2022/04/24 07:43:48;;;;;;;11.25;10.05;;;;;;;11.24;65.28;97231.41;2622391;54;20672;-66
2022/04/24 07:46:18;;;;;;;10.95;9.85;;;;;;;11.16;65.85;97238.66;2622821;54;20045;-63
2022/04/24 07:48:48;;;;;;;11.38;10.07;;;;;;;11.11;65.56;97230.63;2622605;54;20041;-62
2022/04/24 07:51:17;;;;;;;11.27;9.65;;;;;;;11.04;66.52;97235.22;2622019;39;20442;-62
2022/04/24 07:53:49;;;;;;;10.35;9.13;;;;;;;11.12;66.52;97240.16;2621798;54;20042;-65
2022/04/24 07:56:19;;;;;;;11.68;10.07;;;;;;;11.19;66.12;97234.75;2622465;54;20068;-62
2022/04/24 07:58:49;;;;;;;14.35;10.32;;;;;;;11.11;65.02;97232.47;2622567;54;20045;-64
2022/04/24 08:01:18;;;;;;;11.05;9.55;;;;;;;10.99;65.76;97235.13;2623398;54;20053;-63
2022/04/24 08:03:48;;;;;;;10.52;9.43;;;;;;;11.03;66.21;97236.28;2622775;47;20033;-63
2022/04/24 08:06:18;;;;;;;9.73;8.73;;;;;;;11.20;66.44;97231.06;2622631;54;20044;-63
2022/04/24 08:08:50;;;;;;;10.73;8.98;;;;;;;11.33;66.21;97229.97;2623013;39;20102;-62
2022/04/24 08:11:19;;;;;;;10.40;9.02;;;;;;;11.32;65.79;97231.03;2622009;54;20038;-63
2022/04/24 08:13:49;;;;;;;11.68;10.02;;;;;;;11.35;66.01;97226.06;2622698;46;20053;-62
2022/04/24 08:16:19;;;;;;;12.13;10.15;;;;;;;11.41;66.30;97235.69;2622426;47;20038;-61
2022/04/24 08:18:48;;;;;;;11.07;8.65;;;;;;;11.34;65.91;97228.94;2622673;54;20033;-63
2022/04/24 08:21:18;;;;;;;10.77;9.68;;;;;;;11.31;65.86;97237.34;2622948;54;20134;-64
2022/04/24 08:23:50;;;;;;;12.10;10.52;;;;;;;11.29;66.09;97234.94;2622183;54;20042;-63
2022/04/24 08:26:20;;;;;;;12.70;9.68;;;;;;;11.35;66.29;97241.16;2622476;54;20543;-63
2022/04/24 08:28:49;;;;;;;10.63;9.52;;;;;;;11.40;65.93;97233.28;2622193;54;20041;-65
2022/04/24 08:31:19;;;;;;;10.70;9.60;;;;;;;11.44;66.40;97236.28;2622063;54;20026;-63
2022/04/24 08:33:50;;;;;;;12.93;9.52;;;;;;;11.47;66.21;97238.44;2622719;54;20027;-65
2022/04/24 08:36:19;;;;;;;10.23;9.23;;;;;;;11.46;65.70;97242.13;2622122;54;20038;-66
2022/04/24 08:38:52;;;;;;;10.20;8.63;;;;;;;11.52;65.87;97234.06;2622215;54;20037;-65
2022/04/24 08:41:24;;;;;;;9.50;8.60;;;;;;;11.54;65.81;97234.59;2621088;46;20027;-62
2022/04/24 08:43:54;;;;;;;11.13;10.02;;;;;;;11.59;65.26;97247.94;2622460;54;20553;-63
2022/04/24 08:46:24;;;;;;;11.05;9.15;;;;;;;11.61;65.75;97247.69;2622285;54;20026;-63
2022/04/24 08:48:55;;;;;;;11.27;9.98;;;;;;;11.63;65.24;97254.38;2621468;54;20578;-64
2022/04/24 08:51:25;;;;;;;12.00;10.68;;;;;;;11.59;65.22;97261.19;2623033;39;20422;-62
2022/04/24 08:53:58;;;;;;;10.88;9.77;;;;;;;11.35;65.87;97259.66;2622400;54;20034;-63
2022/04/24 08:56:28;;;;;;;10.65;9.60;;;;;;;11.37;65.87;97260.22;2622619;54;20045;-63
2022/04/24 08:58:58;;;;;;;12.77;10.45;;;;;;;11.46;66.15;97265.94;2621681;54;20034;-63
2022/04/24 09:01:28;;;;;;;11.13;9.82;;;;;;;11.60;66.53;97262.78;2621653;47;20026;-62
2022/04/24 09:03:59;;;;;;;13.27;11.57;;;;;;;11.55;65.97;97262.69;2622503;54;20035;-62
2022/04/24 09:06:28;;;;;;;14.23;12.73;;;;;;;11.48;65.56;97271.81;2622262;54;20040;-65
2022/04/24 09:09:09;;;;;;;14.45;12.73;;;;;;;11.35;66.12;97271.03;2621682;54;20054;-62
2022/04/24 09:11:39;;;;;;;13.93;12.52;;;;;;;11.44;66.35;97268.03;2622628;54;20604;-63
2022/04/24 09:14:19;;;;;;;12.65;11.43;;;;;;;11.45;66.64;97266.97;2622089;54;20039;-64
2022/04/24 09:16:53;;;;;;;12.35;11.10;;;;;;;11.50;66.46;97269.72;2621980;47;20026;-72
2022/04/24 09:19:24;;;;;;;14.80;11.35;;;;;;;11.57;65.88;97273.84;2622490;54;20034;-65
2022/04/24 09:21:55;;;;;;;17.05;13.48;;;;;;;11.49;66.19;97278.69;2622533;54;20030;-64
2022/04/24 09:24:30;;;;;;;18.88;13.18;;;;;;;11.55;66.95;97270.63;2622578;54;20142;-64
2022/04/24 09:26:59;;;;;;;12.95;11.55;;;;;;;11.61;66.69;97274.16;2622516;54;20551;-63
2022/04/24 09:29:29;;;;;;;13.07;10.30;;;;;;;11.59;66.67;97278.88;2621896;54;20034;-64
2022/04/24 09:31:59;;;;;;;13.00;10.52;;;;;;;11.72;66.89;97278.63;2620586;54;20030;-63
2022/04/24 09:34:32;;;;;;;12.93;11.52;;;;;;;11.84;66.46;97281.25;2619087;47;20026;-63
2022/04/24 09:37:03;;;;;;;13.23;11.05;;;;;;;12.00;65.83;97282.31;2619582;54;20038;-64
2022/04/24 09:39:37;;;;;;;14.55;10.77;;;;;;;12.03;65.83;97281.84;2620038;54;20030;-63
2022/04/24 09:42:09;;;;;;;13.05;10.52;;;;;;;12.19;66.26;97274.94;2620998;54;20557;-63
2022/04/24 09:44:45;;;;;;;12.13;10.80;;;;;;;12.34;65.67;97281.31;2620605;39;20376;-62
2022/04/24 09:47:34;;;;;;;11.73;9.93;;;;;;;12.53;65.33;97287.19;2619395;47;20034;-62
2022/04/24 09:50:09;;;;;;;15.80;13.02;;;;;;;12.61;64.25;97285.94;2620583;54;20042;-63
2022/04/24 09:52:45;;;;;;;11.10;9.77;;;;;;;12.61;64.66;97288.59;2622454;54;20042;-64
2022/04/24 09:55:20;;;;;;;10.85;9.75;;;;;;;12.69;64.05;97288.19;2622991;54;20074;-62
2022/04/24 09:57:50;;;;;;;11.55;10.20;;;;;;;12.75;63.59;97292.53;2620458;39;20430;-63
2022/04/24 10:00:20;;;;;;;12.43;11.13;;;;;;;12.79;63.45;97296.28;2621412;54;20031;-63
2022/04/24 10:02:52;;;;;;;10.75;9.57;;;;;;;12.71;62.50;97296.72;2622996;54;20035;-62
2022/04/24 10:05:28;;;;;;;12.98;10.88;;;;;;;12.69;62.97;97298.00;2622537;54;20093;-64
2022/04/24 10:07:58;;;;;;;12.57;10.63;;;;;;;12.82;63.01;97303.78;2622213;54;20030;-62
2022/04/24 10:10:30;;;;;;;12.00;10.70;;;;;;;12.79;61.77;97306.91;2621629;54;20026;-63
2022/04/24 10:13:03;;;;;;;13.15;9.90;;;;;;;12.86;62.51;97306.75;2622797;54;20090;-62
2022/04/24 10:15:34;;;;;;;12.57;10.07;;;;;;;13.05;62.30;97301.94;2623231;54;20039;-63
2022/04/24 10:18:18;;;;;;;13.05;9.98;;;;;;;13.19;61.68;97305.06;2621405;54;20034;-63
2022/04/24 10:21:26;;;;;;;18.08;11.98;;;;;;;13.33;60.74;97299.16;2623730;54;20038;-64
2022/04/24 10:23:55;;;;;;;11.20;10.10;;;;;;;13.32;60.47;97305.53;2621152;54;20049;-65
2022/04/24 10:26:28;;;;;;;10.85;9.30;;;;;;;13.41;60.18;97310.41;2621787;47;20542;-64
2022/04/24 10:29:04;;;;;;;9.82;8.82;;;;;;;13.35;59.18;97318.31;2622140;54;20061;-65
2022/04/24 10:31:44;;;;;;;10.23;9.15;;;;;;;13.39;58.97;97318.63;2622660;39;20436;-65
2022/04/24 10:34:18;;;;;;;9.10;8.20;;;;;;;13.32;57.82;97323.31;2622105;54;20574;-65
2022/04/24 10:37:01;;;;;;;10.67;9.47;;;;;;;13.27;57.24;97324.06;2621992;46;20034;-64
2022/04/24 10:39:33;;;;;;;11.47;9.87;;;;;;;13.11;57.38;97320.34;2623035;54;20279;-65
2022/04/24 10:42:12;;;;;;;9.00;8.05;;;;;;;13.23;57.66;97330.09;2623003;54;20038;-65
2022/04/24 10:44:52;;;;;;;11.20;9.05;;;;;;;13.46;57.76;97321.88;2622331;54;20046;-64
2022/04/24 10:47:22;;;;;;;9.57;8.68;;;;;;;13.54;57.50;97321.44;2622297;54;20050;-63
2022/04/24 10:49:52;;;;;;;10.55;9.48;;;;;;;13.74;56.82;97326.19;2622209;54;20050;-64
2022/04/24 10:52:21;;;;;;;10.23;9.23;;;;;;;13.84;56.81;97326.31;2622613;54;20038;-64
2022/04/24 10:54:52;;;;;;;10.73;9.63;;;;;;;13.97;56.10;97329.66;2622266;54;20035;-63
2022/04/24 10:57:26;;;;;;;16.58;13.60;;;;;;;14.14;55.87;97327.69;2622400;54;20027;-62
2022/04/24 10:59:56;;;;;;;24.02;20.95;;;;;;;14.19;55.25;97329.59;2622726;54;20054;-63
2022/04/24 11:02:30;;;;;;;13.30;11.90;;;;;;;14.06;54.59;97331.59;2621135;47;20035;-66
2022/04/24 11:05:03;;;;;;;10.32;9.43;;;;;;;14.08;54.39;97337.47;2621818;54;20030;-63
2022/04/24 11:07:33;;;;;;;10.23;9.15;;;;;;;14.07;55.13;97330.53;2621026;54;20050;-63
2022/04/24 11:10:04;;;;;;;10.23;9.20;;;;;;;14.47;54.87;97328.50;2620910;47;20041;-64
2022/04/24 11:12:37;;;;;;;10.98;9.40;;;;;;;14.75;54.28;97338.88;2621829;54;20034;-63
2022/04/24 11:15:09;;;;;;;19.08;16.02;;;;;;;14.96;53.90;97331.81;2621405;54;20614;-64
2022/04/24 11:17:39;;;;;;;14.00;12.52;;;;;;;15.03;52.72;97335.06;2620776;54;20565;-64
2022/04/24 11:20:13;;;;;;;12.32;11.07;;;;;;;14.77;53.74;97331.41;2620812;47;20033;-62
2022/04/24 11:22:46;;;;;;;;;;;;;;;14.67;53.84;97341.19;2621760;54;20038;-64
2022/04/24 11:25:17;;;;;;;12.95;11.65;;;;;;;14.53;54.55;97338.97;2621725;54;20002;-63
2022/04/24 11:27:53;;;;;;;11.85;10.68;;;;;;;14.53;55.43;97346.13;2623060;39;20478;-63
2022/04/24 11:30:25;;;;;;;14.27;12.82;;;;;;;14.61;55.41;97340.34;2622522;54;20026;-65
2022/04/24 11:32:59;;;;;;;10.93;9.90;;;;;;;14.57;54.88;97340.06;2622127;54;20089;-64
2022/04/24 11:35:31;;;;;;;15.30;11.38;;;;;;;14.60;55.46;97349.38;2622311;54;20728;-64
2022/04/24 11:38:00;;;;;;;11.55;10.35;;;;;;;14.64;55.03;97344.38;2622092;54;20038;-65
2022/04/24 11:40:33;;;;;;;12.10;10.90;;;;;;;14.79;54.54;97345.28;2622381;47;20034;-64